CYQB

Quebec / Jean Lesage International Airport

Quebec, , Canada
METAR CYQB 141300Z 05003KT 30SM SCT070 BKN240 24/18 A2991 RMK AC3CI3 SLP129 DENSITY ALT 1400FT
Observed Flight Rules
Aug-14 @ 13:00 UTC (43 minutes ago) Visual Flight Rules
Wind Visibility Clouds
50° at 3 knots 30 miles
  • Scattered at 7,000' AGL
  • Broken at 24,000' AGL
Temperatures Readings
Current 24°C / 75°F
Dewpoint 18°C / 64°F
Humidity 69%
Altimeter 29.91" Hg
Pressure 1012.9 hPa
Elevation 73
METAR CYQB 141300Z 05003KT 30SM SCT070 BKN240 24/18 A2991 RMK AC3CI3 SLP129 DENSITY ALT 1400FT
Observed Flight Rules
Aug-14 @ 13:00 UTC
(43 minutes ago)
VFR
Wind Visibility
50° at 3 knots 30 miles
Clouds
  • Scattered at 7,000' AGL
  • Broken at 24,000' AGL
Temperature Dewpoint
24°C / 75°F 18°C / 64°F
Humidity Altimeter Pressure
69% 29.91" Hg 1012.9 hPa